Flight Track Log - Related Links

Times and Time Zones

All times are in EDT time to prevent confusion due to time zone crossing. See the EJA641 flight status page for this flight to view local times or setup timezone preferences in your user account.

Time Position Orientation Groundspeed Altitude Reporting Facility
EDT Latitude Longitude Course Direction KTS MPH feet Rate Location/Type
Wed 04:44:39 PM 42.5167 -79.2333 36° Northeast 420 483 10,200  Level Toronto Center
Wed 04:45:39 PM 42.6000 -79.1500 36° Northeast 380 437 9,800 -700 Descending Toronto Center
Wed 04:46:39 PM 42.6833 -79.0833 30° Northeast 350 403 8,800 -1,100 Descending Toronto Center
Wed 04:47:39 PM 42.7667 -79.0167 30° Northeast 340 391 7,600 -1,300 Descending Toronto Center
Wed 04:48:39 PM 42.8333 -78.9667 29° Northeast 330 380 6,200 -55 Descending Toronto Center
Wed 04:50:00 PM 42.7752 -78.7762 113° Southeast  Level Estimated
Wed 04:57:00 PM 42.4686 -77.7943 113° Southeast  Level Estimated
Wed 04:58:00 PM 42.4241 -77.6548 113° Southeast  Level Estimated
Wed 04:59:00 PM 42.3795 -77.5155 113° Southeast  Level Estimated
Wed 05:00:00 PM 42.3347 -77.3765 114° Southeast  Level Estimated
Wed 05:01:00 PM 42.2897 -77.2376 114° Southeast  Level Estimated
Wed 05:02:00 PM 42.2445 -77.0989 114° Southeast  Level Estimated
Wed 05:03:00 PM 42.1992 -76.9604 114° Southeast  Level Estimated
Wed 05:04:00 PM 42.1537 -76.8221 114° Southeast  Level Estimated
Wed 05:05:00 PM 42.1081 -76.6840 114° Southeast  Level Estimated
Wed 05:06:00 PM 42.0623 -76.5462 114° Southeast  Level Estimated
Wed 05:07:00 PM 42.0163 -76.4085 114° Southeast  Level Estimated
Wed 05:08:00 PM 41.9702 -76.2710 114° Southeast  Level Estimated
Wed 05:09:00 PM 41.9239 -76.1337 114° Southeast  Level Estimated
Wed 05:10:00 PM 41.8774 -75.9966 114° Southeast  Level Estimated
Wed 05:11:00 PM 41.8307 -75.8597 115° Southeast  Level Estimated
Wed 05:12:00 PM 41.7840 -75.7230 115° Southeast  Level Estimated
Wed 05:13:00 PM 41.7370 -75.5865 115° Southeast  Level Estimated
Wed 05:14:00 PM 41.6899 -75.4502 115° Southeast  Level Estimated
Wed 05:15:00 PM 41.6426 -75.3141 115° Southeast  Level Estimated
Wed 05:16:00 PM 41.5952 -75.1783 115° Southeast  Level Estimated
Wed 05:17:00 PM 41.5476 -75.0426 115° Southeast  Level Estimated
Wed 05:18:00 PM 41.4998 -74.9071 115° Southeast  Level Estimated
Wed 05:19:00 PM 41.4519 -74.7718 115° Southeast  Level Estimated
Wed 05:20:00 PM 41.4038 -74.6367 115° Southeast  Level Estimated
Wed 05:21:00 PM 41.3556 -74.5018 115° Southeast  Level Estimated
Wed 05:22:00 PM 41.3072 -74.3671 116° Southeast  Level Estimated
Wed 05:23:00 PM 41.2587 -74.2326 116° Southeast  Level Estimated
Wed 05:24:00 PM 41.2100 -74.0983 116° Southeast  Level Estimated
Wed 05:25:00 PM 41.1611 -73.9642 116° Southeast  Level Estimated
Wed 05:26:00 PM 41.1121 -73.8304 116° Southeast  Level Estimated
Wed 05:27:00 PM 41.0669 -73.7076 116° Southeast  Level Estimated
Wed 05:28:00 PM 41.0669 -73.7076 37° Northeast  Level Estimated
Wed 05:29:00 PM 41.0669 -73.7076 37° Northeast  Level Estimated
Wed 05:30:00 PM 41.0669 -73.7076 37° Northeast  Level Estimated
Wed 05:31:00 PM 41.0669 -73.7076 37° Northeast  Level Estimated
Wed 05:32:00 PM 41.0669 -73.7076 37° Northeast  Level Estimated
Wed 05:33:00 PM 41.0669 -73.7076 37° Northeast  Level Estimated
Wed 05:34:00 PM 41.0669 -73.7076 37° Northeast  Level Estimated
Wed 05:35:00 PM 41.0669 -73.7076 37° Northeast  Level Estimated
Wed 05:36:00 PM 41.0669 -73.7076 37° Northeast  Level Estimated
Wed 05:37:00 PM 41.0669 -73.7076 37° Northeast  Level Estimated
Wed 05:38:00 PM 41.0669 -73.7076 37° Northeast  Level Estimated
Wed 05:39:00 PM 41.0669 -73.7076 37° Northeast  Level Estimated
Wed 05:40:00 PM 41.0669 -73.7076 37° Northeast  Level Estimated
Wed 05:41:00 PM 41.0669 -73.7076 37° Northeast  Level Estimated
Wed 05:42:00 PM 41.0669 -73.7076 37° Northeast  Level Estimated
Wed 05:43:00 PM 41.0669 -73.7076 37° Northeast  Level Estimated
Wed 05:44:00 PM 41.0669 -73.7076 37° Northeast  Level Estimated
Wed 05:45:00 PM 41.0669 -73.7076 37° Northeast  Level Estimated
Wed 05:46:00 PM 41.0669 -73.7076 37° Northeast  Level Estimated
Wed 05:47:00 PM 41.0669 -73.7076 37° Northeast  Level Estimated
Wed 05:47:25 PM 43.7000 -79.6333 37° Northeast 170 196 4,300  Level Toronto Center
Wed 05:48:00 PM 41.0669 -73.7076 37° Northeast  Level Estimated
Wed 05:48:25 PM 43.7500 -79.6333 360° North 250 288 7,700  Level Toronto Center
Wed 05:49:00 PM 41.0669 -73.7076 37° Northeast  Level Estimated
Wed 05:49:25 PM 43.7667 -79.5167 79° East 270 311 11,200  Level Toronto Center
Wed 05:50:00 PM 41.0669 -73.7076 37° Northeast  Level Estimated
Wed 05:50:25 PM 43.7333 -79.4333 119° Southeast 290 334 12,900  Level Toronto Center
Wed 05:51:00 PM 41.0669 -73.7076 37° Northeast  Level Estimated
Wed 05:51:25 PM 43.6833 -79.3333 125° Southeast 300 345 15,800  Level Toronto Center
Wed 05:52:00 PM 41.0669 -73.7076 37° Northeast  Level Estimated
Wed 05:52:25 PM 43.6333 -79.2667 136° Southeast 300 345 18,500  Level Toronto Center
Wed 05:53:00 PM 41.0669 -73.7076 37° Northeast  Level Estimated
Wed 05:53:25 PM 43.5667 -79.1500 128° Southeast 320 368 21,400  Level Toronto Center
Wed 05:54:25 PM 43.5000 -79.0667 138° Southeast 330 380 23,000 800 Climbing Toronto Center
Wed 05:55:25 PM 43.4333 -78.9500 128° Southeast 380 437 23,000  Level Toronto Center
Wed 05:56:25 PM 43.3833 -78.8000 115° Southeast 400 460 23,000  Level Toronto Center
Wed 05:57:26 PM 43.3225 -78.7086 132° Southeast 398 458 23,000 1,091 Level Cleveland Center
Wed 05:58:26 PM 43.2600 -78.5878 125° Southeast 404 465 25,200 2,350 Climbing Cleveland Center
Wed 05:59:26 PM 43.2636 -78.4336 88° East 372 428 27,700 2,150 Climbing Cleveland Center
Wed 06:00:26 PM 43.2917 -78.2703 77° East 385 443 29,500 1,650 Climbing Cleveland Center
Wed 06:01:26 PM 43.2725 -78.1539 103° East 393 452 31,000 750 Climbing Cleveland Center
Wed 06:02:26 PM 43.2256 -78.0019 113° Southeast 385 443 31,000  Level Cleveland Center
Wed 06:03:26 PM 43.1783 -77.8586 114° Southeast 404 465 31,000  Level Cleveland Center
Wed 06:04:26 PM 43.1292 -77.7158 115° Southeast 415 478 31,000  Level Cleveland Center
Wed 06:05:26 PM 43.0817 -77.5731 114° Southeast 415 478 31,000  Level Cleveland Center
Wed 06:06:26 PM 43.0361 -77.4272 113° Southeast 415 478 31,000  Level Cleveland Center
Wed 06:08:04 PM 42.9558 -77.1900 115° Southeast 414 476 31,000  Level Boston Center
Wed 06:08:25 PM 42.9167 -77.1000 121° Southeast 430 495 31,000  Level Toronto Center
Wed 06:09:25 PM 42.8667 -76.9500 114° Southeast 430 495 31,000  Level Toronto Center
Wed 06:10:04 PM 42.8553 -76.8931 105° East 420 483 31,000  Level Boston Center
Wed 06:11:04 PM 42.8064 -76.7508 115° Southeast 420 483 31,000  Level Boston Center
Wed 06:12:04 PM 42.7578 -76.6003 114° Southeast 420 483 31,000 -318 Level Boston Center
Wed 06:13:16 PM 42.6953 -76.4239 116° Southeast 425 489 30,300 -773 Descending Boston Center
Wed 06:14:16 PM 42.6422 -76.2678 115° Southeast 430 495 29,300 -1,100 Descending Boston Center
Wed 06:15:16 PM 42.5853 -76.1008 115° Southeast 430 495 28,100 -750 Descending Boston Center
Wed 06:16:16 PM 42.5317 -75.9511 116° Southeast 436 502 27,800 -650 Descending Boston Center
Wed 06:17:16 PM 42.4781 -75.7958 115° Southeast 442 509 26,800 -900 Descending Boston Center
Wed 06:18:16 PM 42.4239 -75.6467 116° Southeast 447 514 26,000 -950 Descending Boston Center
Wed 06:19:16 PM 42.3717 -75.4978 115° Southeast 442 509 24,900 -1,050 Descending Boston Center
Wed 06:20:16 PM 42.3192 -75.3519 116° Southeast 435 501 23,900 -1,450 Descending Boston Center
Wed 06:21:16 PM 42.2747 -75.2208 115° Southeast 440 506 22,000 -2,250 Descending Boston Center
Wed 06:22:16 PM 42.2178 -75.0725 117° Southeast 428 493 19,400 -1,364 Descending Boston Center
Wed 06:23:28 PM 42.1567 -74.9103 117° Southeast 407 468 19,000 -182 Descending Boston Center
Wed 06:24:28 PM 42.0992 -74.7767 120° Southeast 407 468 19,000 -250 Level Boston Center
Wed 06:25:28 PM 42.0517 -74.6544 118° Southeast 407 468 18,500 -900 Descending Boston Center
Wed 06:26:28 PM 41.9897 -74.5128 120° Southeast 407 468 17,200 -1,150 Descending Boston Center
Wed 06:27:28 PM 41.9436 -74.3994 119° Southeast 401 461 16,200 -1,100 Descending Boston Center
Wed 06:28:28 PM 41.8836 -74.2611 120° Southeast 396 456 15,000 -1,100 Descending Boston Center
Wed 06:29:28 PM 41.8269 -74.1425 123° Southeast 385 443 14,000 -1,300 Descending Boston Center
Wed 06:30:28 PM 41.7575 -74.0542 136° Southeast 371 427 12,400 -1,650 Descending Boston Center
Wed 06:31:28 PM 41.6828 -74.0161 159° South 312 359 10,700 -1,533 Descending Boston Center
Wed 06:32:45 PM 41.5833 -73.9667 160° South 273 314 8,900 -1,374 Descending New York TRACON
Wed 06:33:39 PM 41.5167 -73.9333 159° South 261 300 7,700 -1,263 Descending New York TRACON
Wed 06:34:39 PM 41.4667 -73.9167 166° South 219 252 6,500 -1,200 Descending New York TRACON
Wed 06:35:39 PM 41.4167 -73.9167 180° South 176 203 5,300 -1,150 Descending New York TRACON
Wed 06:36:39 PM 41.3667 -73.9000 166° South 168 193 4,200 -800 Descending New York TRACON
Wed 06:37:39 PM 41.3167 -73.8833 166° South 171 197 3,700 -600 Descending New York TRACON
Wed 06:38:39 PM 41.2667 -73.8667 166° South 174 200 3,000 -350 Descending New York TRACON
Wed 06:39:39 PM 41.2333 -73.8333 143° Southeast 179 206 3,000  Level New York TRACON
Wed 06:40:39 PM 41.1833 -73.8000 153° Southeast 173 199 3,000 -476 Level New York TRACON
Wed 06:41:45 PM 41.1500 -73.7667 143° Southeast 175 201 2,000 -850 Descending New York TRACON
Wed 06:42:39 PM 41.1167 -73.7333 143° Southeast 131 151 1,300 -778 Descending New York TRACON

Login

Don't have an account? Register now (free) for customized features, flight alerts, and more!